createdAt,value
2017-10-23T00:01:27.334Z,74.15
2017-10-23T00:03:54.802Z,74.06
2017-10-23T00:06:22.289Z,74.20
2017-10-23T00:08:49.789Z,74.73
2017-10-23T00:11:17.280Z,74.75
2017-10-23T00:13:44.751Z,74.67
2017-10-23T00:16:12.251Z,75.47
2017-10-23T00:18:39.722Z,75.77
2017-10-23T00:21:07.179Z,74.89
2017-10-23T00:23:34.675Z,75.28
2017-10-23T00:26:02.137Z,75.76
2017-10-23T00:28:29.610Z,75.89
2017-10-23T00:30:57.083Z,76.25
2017-10-23T00:33:24.552Z,76.87
2017-10-23T00:35:52.006Z,76.17
2017-10-23T00:38:19.494Z,76.38
2017-10-23T00:40:46.967Z,77.09
2017-10-23T00:43:14.449Z,76.16
2017-10-23T00:45:41.919Z,76.82
2017-10-23T00:48:09.395Z,76.14
2017-10-23T00:50:36.854Z,76.43
2017-10-23T00:53:04.348Z,77.05
2017-10-23T00:55:31.799Z,76.25
2017-10-23T00:57:59.288Z,75.94
2017-10-23T01:00:26.772Z,75.99
2017-10-23T01:02:54.273Z,75.11
2017-10-23T01:05:21.721Z,75.51
2017-10-23T01:07:49.214Z,75.47
2017-10-23T01:10:16.669Z,76.09
2017-10-23T01:12:44.113Z,74.87
2017-10-23T01:15:11.714Z,75.23
2017-10-23T01:17:39.162Z,74.16
2017-10-23T01:20:06.633Z,74.22
2017-10-23T01:22:34.127Z,73.27
2017-10-23T01:25:01.577Z,72.84
2017-10-23T01:27:29.038Z,73.19
2017-10-23T01:29:56.518Z,72.94
2017-10-23T01:32:23.978Z,73.32
2017-10-23T01:34:51.437Z,72.81
2017-10-23T01:37:18.965Z,73.12
2017-10-23T01:39:46.445Z,73.53
2017-10-23T01:42:13.909Z,74.22
2017-10-23T01:44:41.409Z,74.24
2017-10-23T01:47:08.875Z,74.06
2017-10-23T01:49:36.339Z,72.64
2017-10-23T01:52:03.830Z,73.09
2017-10-23T01:54:31.301Z,73.76
2017-10-23T01:56:58.750Z,74.17
2017-10-23T01:59:26.235Z,74.17
2017-10-23T02:01:53.721Z,75.08
2017-10-23T02:04:21.187Z,75.37
2017-10-23T02:06:48.681Z,75.10
2017-10-23T02:09:16.161Z,75.75
2017-10-23T02:11:43.623Z,75.41
2017-10-23T02:14:11.090Z,76.01
2017-10-23T02:16:38.553Z,76.08
2017-10-23T02:19:06.014Z,76.28
2017-10-23T02:21:33.505Z,75.38
2017-10-23T02:24:00.960Z,75.71
2017-10-23T02:26:28.412Z,75.76
2017-10-23T02:28:55.874Z,74.66
2017-10-23T02:31:23.332Z,74.37
2017-10-23T02:33:50.795Z,73.67
2017-10-23T02:36:18.278Z,74.32
2017-10-23T02:38:45.739Z,74.03
2017-10-23T02:41:13.188Z,73.69
2017-10-23T02:43:40.684Z,74.16
2017-10-23T02:46:08.164Z,73.71
2017-10-23T02:48:35.633Z,73.03
2017-10-23T02:51:03.126Z,73.85
2017-10-23T02:53:30.595Z,74.10
2017-10-23T02:55:58.052Z,73.32
2017-10-23T02:58:25.591Z,73.22
2017-10-23T03:00:53.047Z,73.75
2017-10-23T03:03:20.519Z,73.20
2017-10-23T03:05:47.994Z,73.75
2017-10-23T03:08:15.497Z,74.21
2017-10-23T03:10:42.967Z,74.23
2017-10-23T03:13:10.438Z,73.12
2017-10-23T03:15:37.914Z,73.96
2017-10-23T03:18:05.381Z,74.38
2017-10-23T03:20:32.885Z,74.30
2017-10-23T03:23:00.359Z,73.49
2017-10-23T03:25:27.820Z,74.20
2017-10-23T03:27:55.310Z,74.45
2017-10-23T03:30:22.783Z,74.24
2017-10-23T03:32:50.265Z,73.86
2017-10-23T03:35:17.763Z,73.80
2017-10-23T03:37:45.472Z,73.00
2017-10-23T03:40:12.963Z,73.14
2017-10-23T03:42:40.480Z,72.40
2017-10-23T03:45:07.928Z,72.82
2017-10-23T03:47:35.404Z,72.25
2017-10-23T03:50:02.903Z,71.71
2017-10-23T03:52:30.415Z,72.18
2017-10-23T03:54:57.884Z,72.20
2017-10-23T03:57:25.369Z,71.78
2017-10-23T03:59:52.863Z,71.97
2017-10-23T04:02:20.327Z,72.00
2017-10-23T04:04:47.864Z,72.36
2017-10-23T04:07:15.327Z,72.26
2017-10-23T04:09:42.803Z,72.19
2017-10-23T04:12:10.291Z,72.10
2017-10-23T04:14:37.790Z,72.36
2017-10-23T04:17:05.260Z,71.71
2017-10-23T04:19:32.741Z,72.38
2017-10-23T04:22:00.198Z,72.67
2017-10-23T04:24:27.714Z,72.78
2017-10-23T04:26:55.188Z,73.24
2017-10-23T04:29:22.672Z,72.63
2017-10-23T04:31:50.142Z,73.18
2017-10-23T04:34:17.636Z,73.00
2017-10-23T04:36:45.098Z,73.42
2017-10-23T04:39:12.545Z,73.35
2017-10-23T04:41:40.022Z,74.20
2017-10-23T04:44:07.508Z,73.60
2017-10-23T04:46:34.967Z,73.99
2017-10-23T04:49:02.449Z,74.29
2017-10-23T04:51:29.918Z,74.17
2017-10-23T04:53:57.377Z,74.11
2017-10-23T04:56:24.896Z,74.57
2017-10-23T04:58:52.357Z,74.32
2017-10-23T05:01:19.827Z,74.33
2017-10-23T05:03:47.331Z,74.38
2017-10-23T05:06:14.803Z,74.48
2017-10-23T05:08:42.273Z,74.40
2017-10-23T05:11:09.820Z,74.43
2017-10-23T05:13:37.298Z,74.72
2017-10-23T05:16:04.786Z,74.54
2017-10-23T05:18:32.303Z,74.60
2017-10-23T05:20:59.768Z,74.02
2017-10-23T05:23:27.238Z,74.17
2017-10-23T05:25:54.756Z,74.58
2017-10-23T05:28:22.230Z,74.17
2017-10-23T05:30:49.717Z,74.05
2017-10-23T05:33:17.214Z,73.89
2017-10-23T05:35:44.726Z,74.05
2017-10-23T05:38:12.213Z,74.34
2017-10-23T05:40:39.710Z,74.49
2017-10-23T05:43:08.039Z,74.96
2017-10-23T05:45:35.517Z,74.86
2017-10-23T05:48:03.013Z,74.62
2017-10-23T05:50:31.007Z,74.59
2017-10-23T05:52:58.479Z,74.81
2017-10-23T05:55:25.999Z,74.73
2017-10-23T05:57:53.473Z,75.21
2017-10-23T06:00:20.931Z,75.45
2017-10-23T06:02:48.441Z,75.30
2017-10-23T06:05:15.894Z,75.55
2017-10-23T06:07:43.378Z,75.84
2017-10-23T06:10:11.170Z,75.71
2017-10-23T06:12:38.674Z,75.97
2017-10-23T06:15:06.183Z,75.86
2017-10-23T06:17:33.664Z,75.78
2017-10-23T06:20:01.139Z,75.87
2017-10-23T06:22:28.694Z,75.70
2017-10-23T06:24:56.194Z,75.48
2017-10-23T06:27:23.673Z,75.67
2017-10-23T06:29:51.138Z,75.47
2017-10-23T06:32:18.632Z,75.35
2017-10-23T06:34:46.101Z,75.07
2017-10-23T06:37:13.608Z,74.91
2017-10-23T06:39:41.086Z,74.97
2017-10-23T06:42:08.601Z,74.39
2017-10-23T06:44:36.067Z,74.71
2017-10-23T06:47:03.574Z,74.90
2017-10-23T06:49:31.050Z,74.62
2017-10-23T06:51:58.525Z,74.74
2017-10-23T06:54:26.011Z,74.48
2017-10-23T06:56:53.527Z,74.44
2017-10-23T06:59:20.990Z,74.14
2017-10-23T07:01:48.477Z,74.02
2017-10-23T07:04:15.993Z,73.99
2017-10-23T07:06:43.494Z,74.09
2017-10-23T07:09:11.085Z,74.15
2017-10-23T07:11:38.596Z,74.27
2017-10-23T07:14:06.137Z,74.27
2017-10-23T07:16:33.694Z,73.76
2017-10-23T07:19:01.180Z,73.57
2017-10-23T07:21:28.681Z,74.07
2017-10-23T07:23:56.187Z,73.91
2017-10-23T07:26:23.694Z,73.43
2017-10-23T07:28:51.176Z,73.64
2017-10-23T07:31:18.753Z,73.18
2017-10-23T07:33:46.240Z,73.25
2017-10-23T07:36:13.720Z,73.36
2017-10-23T07:38:41.207Z,73.87
2017-10-23T07:41:08.762Z,73.46
2017-10-23T07:43:36.330Z,73.10
2017-10-23T07:46:03.802Z,73.16
2017-10-23T07:48:31.284Z,73.06
2017-10-23T07:50:58.750Z,72.68
2017-10-23T07:53:31.266Z,72.78
2017-10-23T07:55:58.754Z,73.18
2017-10-23T07:58:26.237Z,72.91
2017-10-23T08:00:53.736Z,72.36
2017-10-23T08:03:21.214Z,72.16
2017-10-23T08:05:48.694Z,71.68
2017-10-23T08:08:16.210Z,72.00
2017-10-23T08:10:43.690Z,71.99
2017-10-23T08:13:11.166Z,71.79
2017-10-23T08:15:38.686Z,72.21
2017-10-23T08:18:06.180Z,72.13
2017-10-23T08:20:33.682Z,72.19
2017-10-23T08:23:01.170Z,72.16
2017-10-23T08:25:28.698Z,72.40
2017-10-23T08:27:56.176Z,72.46
2017-10-23T08:30:23.670Z,72.65
2017-10-23T08:32:51.129Z,72.83
2017-10-23T08:35:18.607Z,72.81
2017-10-23T08:37:46.113Z,72.80
2017-10-23T08:40:13.594Z,72.82
2017-10-23T08:42:41.096Z,72.74
2017-10-23T08:45:08.579Z,72.75
2017-10-23T08:47:36.073Z,72.98
2017-10-23T08:50:03.545Z,73.15
2017-10-23T08:52:31.093Z,73.99
2017-10-23T08:54:58.562Z,75.33
2017-10-23T08:57:26.014Z,75.92
2017-10-23T08:59:53.538Z,76.87
2017-10-23T09:02:21.021Z,77.82
2017-10-23T09:04:48.542Z,78.17
2017-10-23T09:07:16.089Z,78.80
2017-10-23T09:09:43.581Z,80.08
2017-10-23T09:12:11.049Z,81.99
2017-10-23T09:14:38.530Z,82.62
2017-10-23T09:17:06.127Z,82.14
2017-10-23T09:19:33.635Z,82.25
2017-10-23T09:22:01.173Z,83.54
2017-10-23T09:24:28.707Z,83.41
2017-10-23T09:26:56.204Z,82.62
2017-10-23T09:29:23.723Z,83.05
2017-10-23T09:31:51.193Z,82.39
2017-10-23T09:34:18.652Z,82.31
2017-10-23T09:36:46.201Z,80.00
2017-10-23T09:39:13.653Z,81.15
2017-10-23T09:41:41.169Z,80.78
2017-10-23T09:44:08.644Z,80.04
2017-10-23T09:46:36.120Z,79.08
2017-10-23T09:49:03.596Z,79.05
2017-10-23T09:51:31.093Z,78.34
2017-10-23T09:53:58.566Z,78.99
2017-10-23T09:56:26.043Z,78.49
2017-10-23T09:58:53.606Z,78.78
2017-10-23T10:01:21.102Z,78.70
2017-10-23T10:03:48.565Z,78.69
2017-10-23T10:06:16.050Z,79.58
2017-10-23T10:08:43.534Z,79.95
2017-10-23T10:11:11.050Z,79.63
2017-10-23T10:13:38.520Z,80.64
2017-10-23T10:16:05.978Z,80.02
2017-10-23T10:18:33.459Z,79.89
2017-10-23T10:21:00.976Z,80.61
2017-10-23T10:23:28.536Z,81.04
2017-10-23T10:25:56.027Z,80.29
2017-10-23T10:28:24.361Z,81.13
2017-10-23T10:30:51.911Z,81.62
2017-10-23T10:33:19.400Z,81.36
2017-10-23T10:35:46.895Z,82.14
2017-10-23T10:38:14.425Z,82.33
2017-10-23T10:40:41.896Z,81.02
2017-10-23T10:43:09.365Z,81.29
2017-10-23T10:45:36.882Z,81.25
2017-10-23T10:48:04.399Z,80.93
2017-10-23T10:50:31.914Z,81.77
2017-10-23T10:52:59.465Z,82.02
2017-10-23T10:55:26.947Z,81.90
2017-10-23T10:57:54.420Z,81.89
2017-10-23T11:00:21.861Z,81.37
2017-10-23T11:02:49.349Z,81.12
2017-10-23T11:05:16.844Z,81.33
2017-10-23T11:07:44.365Z,81.20
2017-10-23T11:10:11.867Z,80.86
2017-10-23T11:12:39.346Z,80.43
2017-10-23T11:15:06.804Z,80.54
2017-10-23T11:17:34.328Z,81.49
2017-10-23T11:20:01.815Z,81.09
2017-10-23T11:22:29.321Z,80.42
2017-10-23T11:24:56.790Z,80.43
2017-10-23T11:27:24.307Z,80.10
2017-10-23T11:29:51.783Z,80.47
2017-10-23T11:32:19.274Z,79.31
2017-10-23T11:34:46.827Z,78.69
2017-10-23T11:37:14.293Z,78.59
2017-10-23T11:39:41.756Z,78.94
2017-10-23T11:42:09.249Z,79.42
2017-10-23T11:44:36.724Z,80.53
2017-10-23T11:47:04.274Z,81.13
2017-10-23T11:49:31.838Z,81.80
2017-10-23T11:51:59.302Z,82.08
2017-10-23T11:54:26.799Z,81.97
2017-10-23T11:56:54.326Z,82.48
2017-10-23T11:59:21.807Z,81.21
2017-10-23T12:01:49.274Z,81.56
2017-10-23T12:04:17.127Z,80.73
2017-10-23T12:06:44.600Z,81.65
2017-10-23T12:09:12.077Z,81.41
2017-10-23T12:11:39.567Z,80.74
2017-10-23T12:14:07.146Z,81.40
2017-10-23T12:16:34.625Z,81.37
2017-10-23T12:19:02.162Z,81.75
2017-10-23T12:21:29.612Z,82.30
2017-10-23T12:23:57.065Z,81.77
2017-10-23T12:26:24.573Z,81.12
2017-10-23T12:28:52.041Z,81.81
2017-10-23T12:31:19.519Z,81.90
2017-10-23T12:33:47.025Z,80.66
2017-10-23T12:36:14.523Z,80.19
2017-10-23T12:38:42.020Z,80.51
2017-10-23T12:41:09.562Z,80.93
2017-10-23T12:43:37.049Z,81.81
2017-10-23T12:46:04.537Z,81.16
2017-10-23T12:48:32.021Z,82.24
2017-10-23T12:50:59.469Z,81.16
2017-10-23T12:53:26.946Z,80.89
2017-10-23T12:55:54.436Z,81.00
2017-10-23T12:58:21.907Z,80.68
2017-10-23T13:00:49.392Z,80.93
2017-10-23T13:03:16.886Z,80.04
2017-10-23T13:05:44.756Z,79.81
2017-10-23T13:08:12.631Z,80.16
2017-10-23T13:10:40.138Z,80.85
2017-10-23T13:13:07.589Z,79.98
2017-10-23T13:15:35.045Z,80.54
2017-10-23T13:18:02.538Z,80.67
2017-10-23T13:20:30.008Z,80.33
2017-10-23T13:22:57.465Z,80.03
2017-10-23T13:25:24.945Z,80.49
2017-10-23T13:27:52.404Z,79.89
2017-10-23T13:30:19.853Z,79.97
2017-10-23T13:32:47.334Z,80.70
2017-10-23T13:35:14.808Z,80.73
2017-10-23T13:37:42.277Z,80.29
2017-10-23T13:40:09.858Z,80.59
2017-10-23T13:42:37.322Z,80.50
2017-10-23T13:45:04.815Z,80.36
2017-10-23T13:47:32.307Z,79.11
2017-10-23T13:49:59.775Z,80.07
2017-10-23T13:52:27.250Z,80.36
2017-10-23T13:54:54.760Z,80.80
2017-10-23T13:57:22.225Z,80.66
2017-10-23T13:59:49.714Z,80.12
2017-10-23T14:02:17.215Z,80.47
2017-10-23T14:04:44.709Z,79.58
2017-10-23T14:07:12.180Z,79.33
2017-10-23T14:09:39.691Z,78.48
2017-10-23T14:12:07.155Z,79.07
2017-10-23T14:14:34.621Z,78.05
2017-10-23T14:17:02.119Z,78.25
2017-10-23T14:19:29.584Z,78.18
2017-10-23T14:21:57.060Z,77.60
2017-10-23T14:24:24.550Z,78.09
2017-10-23T14:26:52.028Z,79.05
2017-10-23T14:29:19.551Z,78.19
2017-10-23T14:31:47.101Z,77.61
2017-10-23T14:34:14.612Z,78.06
2017-10-23T14:36:42.102Z,77.94
2017-10-23T14:39:09.611Z,78.02
2017-10-23T14:41:37.110Z,77.16
2017-10-23T14:44:04.694Z,76.35
2017-10-23T14:46:32.241Z,76.77
2017-10-23T14:48:59.768Z,76.60
2017-10-23T14:51:27.274Z,76.55
2017-10-23T14:53:54.820Z,76.46
2017-10-23T14:56:22.276Z,75.60
2017-10-23T14:58:49.783Z,75.25
2017-10-23T15:01:17.315Z,74.62
2017-10-23T15:03:44.794Z,73.71
2017-10-23T15:06:12.265Z,72.95
2017-10-23T15:08:39.778Z,73.65
2017-10-23T15:11:07.273Z,73.19
2017-10-23T15:13:34.751Z,72.19
2017-10-23T15:16:02.248Z,71.80
2017-10-23T15:18:29.862Z,71.86
2017-10-23T15:20:57.551Z,71.83
2017-10-23T15:23:25.044Z,72.07
2017-10-23T15:25:52.756Z,71.67
2017-10-23T15:28:20.512Z,71.95
2017-10-23T15:30:48.161Z,71.30
2017-10-23T15:33:15.641Z,70.91
2017-10-23T15:35:43.126Z,70.96
2017-10-23T15:38:10.667Z,71.18
2017-10-23T15:40:38.137Z,71.29
2017-10-23T15:43:05.647Z,71.19
2017-10-23T15:45:33.124Z,71.03
2017-10-23T15:48:00.599Z,71.25
2017-10-23T15:50:28.070Z,70.83
2017-10-23T15:52:55.554Z,70.44
2017-10-23T15:55:23.041Z,69.79
2017-10-23T15:57:50.551Z,69.65
2017-10-23T16:00:18.083Z,70.00
2017-10-23T16:02:45.549Z,70.23
2017-10-23T16:05:13.042Z,70.12
2017-10-23T16:07:40.547Z,69.80
2017-10-23T16:10:08.039Z,70.14
2017-10-23T16:12:35.531Z,70.64
2017-10-23T16:15:03.022Z,71.15
2017-10-23T16:17:30.518Z,70.70
2017-10-23T16:19:57.978Z,70.83
2017-10-23T16:22:25.481Z,71.09
2017-10-23T16:24:52.966Z,70.37
2017-10-23T16:27:20.438Z,70.75
2017-10-23T16:29:47.996Z,71.06
2017-10-23T16:32:15.491Z,71.35
2017-10-23T16:34:42.976Z,71.82
2017-10-23T16:37:10.495Z,71.13
2017-10-23T16:39:37.985Z,71.05
2017-10-23T16:42:05.488Z,71.28
2017-10-23T16:44:33.000Z,70.98
2017-10-23T16:47:00.502Z,70.81
2017-10-23T16:49:27.985Z,70.47
2017-10-23T16:51:55.497Z,70.92
2017-10-23T16:54:22.957Z,71.06
2017-10-23T16:56:50.435Z,70.97
2017-10-23T16:59:17.923Z,71.33
2017-10-23T17:01:45.394Z,71.18
2017-10-23T17:04:12.875Z,71.86
2017-10-23T17:06:40.378Z,71.97
2017-10-23T17:09:07.836Z,71.76
2017-10-23T17:11:35.290Z,71.98
2017-10-23T17:14:02.771Z,72.48
2017-10-23T17:16:30.309Z,72.38
2017-10-23T17:18:57.854Z,72.58
2017-10-23T17:21:25.383Z,72.79
2017-10-23T17:23:52.951Z,72.81
2017-10-23T17:26:20.478Z,73.24
2017-10-23T17:28:47.989Z,72.94
2017-10-23T17:31:15.543Z,73.06
2017-10-23T17:33:43.068Z,73.42
2017-10-23T17:36:10.554Z,73.23
2017-10-23T17:38:38.020Z,73.13
2017-10-23T17:41:05.515Z,72.97
2017-10-23T17:43:33.018Z,73.18
2017-10-23T17:46:00.467Z,73.26
2017-10-23T17:48:27.976Z,73.39
2017-10-23T17:50:55.520Z,73.50
2017-10-23T17:53:23.591Z,73.35
2017-10-23T17:55:51.113Z,73.83
2017-10-23T17:58:18.605Z,73.64
2017-10-23T18:00:46.083Z,73.67
2017-10-23T18:03:13.615Z,73.45
2017-10-23T18:05:41.375Z,73.51
2017-10-23T18:08:08.877Z,73.86
2017-10-23T18:10:36.342Z,74.07
2017-10-23T18:13:03.909Z,74.12
2017-10-23T18:15:31.643Z,74.40
2017-10-23T18:17:59.137Z,74.43
2017-10-23T18:20:26.649Z,74.54
2017-10-23T18:22:54.165Z,74.49
2017-10-23T18:25:21.624Z,74.50
2017-10-23T18:27:49.138Z,74.27
2017-10-23T18:30:16.595Z,74.51
2017-10-23T18:32:44.123Z,74.66
2017-10-23T18:35:11.629Z,74.64
2017-10-23T18:37:39.115Z,74.50
2017-10-23T18:40:06.666Z,74.58
2017-10-23T18:42:34.163Z,74.62
2017-10-23T18:45:01.651Z,74.38
2017-10-23T18:47:29.158Z,74.69
2017-10-23T18:49:56.673Z,74.52
2017-10-23T18:52:24.162Z,74.73
2017-10-23T18:54:51.666Z,74.92
2017-10-23T18:57:19.153Z,74.75
2017-10-23T18:59:46.637Z,74.61
2017-10-23T19:02:14.145Z,74.78
2017-10-23T19:04:41.682Z,75.01
2017-10-23T19:07:09.178Z,74.89
2017-10-23T19:09:36.671Z,74.86
2017-10-23T19:12:10.584Z,75.06
2017-10-23T19:14:38.139Z,74.85
2017-10-23T19:17:05.630Z,74.86
2017-10-23T19:19:33.518Z,74.90
2017-10-23T19:22:01.031Z,74.91
2017-10-23T19:24:28.543Z,74.67
2017-10-23T19:26:56.096Z,74.64
2017-10-23T19:29:23.597Z,74.96
2017-10-23T19:31:51.069Z,75.02
2017-10-23T19:34:18.570Z,74.62
2017-10-23T19:36:46.071Z,74.27
2017-10-23T19:39:13.596Z,74.27
2017-10-23T19:41:41.147Z,74.68
2017-10-23T19:44:08.628Z,74.41
2017-10-23T19:46:36.093Z,74.70
2017-10-23T19:49:03.633Z,74.62
2017-10-23T19:51:31.100Z,74.57
2017-10-23T19:53:58.599Z,74.66
2017-10-23T19:56:26.118Z,74.76
2017-10-23T19:58:53.687Z,74.75
2017-10-23T20:01:21.179Z,74.59
2017-10-23T20:03:48.703Z,74.77
2017-10-23T20:06:16.177Z,75.17
2017-10-23T20:08:43.724Z,75.19
2017-10-23T20:11:11.279Z,74.98
2017-10-23T20:13:38.769Z,74.80
2017-10-23T20:16:06.873Z,74.80
2017-10-23T20:18:34.377Z,75.25
2017-10-23T20:21:01.859Z,75.59
2017-10-23T20:23:29.347Z,75.47
2017-10-23T20:25:56.855Z,75.60
2017-10-23T20:28:24.369Z,75.50
2017-10-23T20:30:51.866Z,75.52
2017-10-23T20:33:19.401Z,75.97
2017-10-23T20:35:46.940Z,75.83
2017-10-23T20:38:14.514Z,75.93
2017-10-23T20:40:42.052Z,76.08
2017-10-23T20:43:09.577Z,76.09
2017-10-23T20:45:37.041Z,75.93
2017-10-23T20:48:04.541Z,75.85
2017-10-23T20:50:32.056Z,75.90
2017-10-23T20:52:59.569Z,75.76
2017-10-23T20:55:27.039Z,76.26
2017-10-23T20:57:54.494Z,75.58
2017-10-23T21:00:21.954Z,75.77
2017-10-23T21:02:49.498Z,75.73
2017-10-23T21:05:17.004Z,76.07
2017-10-23T21:07:44.461Z,75.61
2017-10-23T21:10:11.945Z,75.71
2017-10-23T21:12:39.429Z,75.45
2017-10-23T21:15:06.963Z,75.14
2017-10-23T21:17:34.491Z,75.58
2017-10-23T21:20:01.966Z,75.75
2017-10-23T21:22:29.417Z,75.74
2017-10-23T21:24:56.903Z,75.83
2017-10-23T21:27:24.364Z,76.24
2017-10-23T21:29:51.822Z,76.44
2017-10-23T21:32:19.314Z,76.70
2017-10-23T21:34:46.777Z,76.87
2017-10-23T21:37:14.295Z,76.80
2017-10-23T21:39:41.796Z,77.12
2017-10-23T21:42:10.458Z,77.22
2017-10-23T21:44:37.925Z,77.55
2017-10-23T21:47:10.425Z,77.45
2017-10-23T21:49:37.937Z,77.61
2017-10-23T21:52:05.470Z,77.81
2017-10-23T21:54:32.975Z,77.61
2017-10-23T21:57:00.431Z,77.33
2017-10-23T21:59:27.908Z,77.60
2017-10-23T22:01:55.444Z,77.50
2017-10-23T22:04:22.920Z,77.31
2017-10-23T22:06:50.475Z,77.74
2017-10-23T22:09:17.959Z,77.47
2017-10-23T22:11:45.441Z,77.70
2017-10-23T22:14:12.899Z,77.83
2017-10-23T22:16:40.362Z,78.12
2017-10-23T22:19:07.818Z,77.96
2017-10-23T22:21:35.275Z,77.78
2017-10-23T22:24:02.800Z,77.80
2017-10-23T22:26:30.262Z,77.61
2017-10-23T22:28:57.757Z,77.87
2017-10-23T22:31:25.245Z,77.81
2017-10-23T22:33:52.702Z,77.83
2017-10-23T22:36:20.172Z,77.91
2017-10-23T22:38:47.642Z,78.47
2017-10-23T22:41:15.111Z,77.69
2017-10-23T22:43:42.578Z,77.71
2017-10-23T22:46:10.078Z,77.95
2017-10-23T22:48:37.534Z,77.73
2017-10-23T22:51:05.032Z,78.04
2017-10-23T22:53:32.550Z,77.96
2017-10-23T22:56:00.019Z,77.74
2017-10-23T22:58:27.504Z,77.76
2017-10-23T23:00:54.981Z,77.77
2017-10-23T23:03:22.468Z,77.59
2017-10-23T23:05:49.965Z,77.62
2017-10-23T23:08:17.509Z,77.72
2017-10-23T23:10:44.982Z,77.55
2017-10-23T23:13:12.455Z,77.39
2017-10-23T23:15:39.969Z,77.11
2017-10-23T23:18:07.455Z,76.98
2017-10-23T23:20:34.974Z,76.94
2017-10-23T23:23:02.488Z,76.56
2017-10-23T23:25:29.991Z,76.28
2017-10-23T23:27:57.437Z,76.08
2017-10-23T23:30:24.909Z,76.11
2017-10-23T23:32:52.537Z,76.04
2017-10-23T23:35:19.998Z,76.00
2017-10-23T23:37:47.481Z,75.89
2017-10-23T23:40:14.982Z,76.35
2017-10-23T23:42:42.463Z,76.22
2017-10-23T23:45:09.967Z,76.24
2017-10-23T23:47:37.424Z,76.17
2017-10-23T23:50:04.871Z,76.08
2017-10-23T23:52:32.348Z,76.02
2017-10-23T23:54:59.822Z,76.25
2017-10-23T23:57:27.276Z,76.21
2017-10-23T23:59:54.775Z,76.01
